Time;durP1;ratioP1;P1;durP2;ratioP2;P2;SDS_P1;SDS_P2;PMS_P1;PMS_P2;Temp;Humidity;BMP_temperature;BMP_pressure;BME280_temperature;BME280_humidity;BME280_pressure;Samples;Min_cycle;Max_cycle;Signal;HPM_P1;HPM_P2
2022/01/05 00:01:31;;;;;;;;;;;;;;;17.91;61.11;100167.97;5006885;28;1977;-36
2022/01/05 00:03:58;;;;;;;;;;;;;;;17.91;60.90;100175.16;5026162;28;1427;-36
2022/01/05 00:06:26;;;;;;;;;;;;;;;17.86;61.11;100176.41;5043150;28;1394;-36
2022/01/05 00:08:58;;;;;;;;;;;;;;;17.84;61.12;100164.16;5046300;28;1377;-36
2022/01/05 00:11:25;;;;;;;;;;;;;;;17.83;60.69;100166.00;5035769;28;2020;-37
2022/01/05 00:13:56;;;;;;;;;;;;;;;17.80;60.99;100162.72;5044202;28;1637;-36
2022/01/05 00:16:23;;;;;;;;;;;;;;;17.80;61.26;100168.91;5039795;28;1592;-36
2022/01/05 00:18:50;;;;;;;;;;;;;;;17.78;61.02;100165.53;5054410;28;1103;-36
2022/01/05 00:21:24;;;;;;;;;;;;;;;17.75;61.28;100170.34;5050210;28;1906;-36
2022/01/05 00:23:51;;;;;;;;;;;;;;;17.74;61.07;100161.47;5047405;28;1768;-36
2022/01/05 00:26:21;;;;;;;;;;;;;;;17.72;61.16;100166.13;5043697;28;1612;-36
2022/01/05 00:28:48;;;;;;;;;;;;;;;17.73;61.13;100167.81;5044251;28;1783;-36
2022/01/05 00:31:14;;;;;;;;;;;;;;;17.70;60.88;100168.09;5051355;28;1944;-36
2022/01/05 00:33:50;;;;;;;;;;;;;;;17.67;60.54;100161.19;5037108;28;1080;-36
2022/01/05 00:36:17;;;;;;;;;;;;;;;17.68;61.05;100168.22;5039538;28;1728;-36
2022/01/05 00:38:44;;;;;;;;;;;;;;;17.68;61.05;100183.44;5041783;28;1678;-36
2022/01/05 00:41:12;;;;;;;;;;;;;;;17.69;60.97;100182.47;5052802;28;1984;-36
2022/01/05 00:43:51;;;;;;;;;;;;;;;17.64;61.44;100163.31;5046122;28;1608;-36
2022/01/05 00:46:19;;;;;;;;;;;;;;;17.70;60.93;100168.09;5035601;28;1716;-36
2022/01/05 00:48:50;;;;;;;;;;;;;;;17.65;61.68;100165.00;5051059;28;1673;-36
2022/01/05 00:51:17;;;;;;;;;;;;;;;17.62;61.22;100166.13;5044354;28;1925;-36
2022/01/05 00:53:47;;;;;;;;;;;;;;;17.62;60.95;100166.13;5047052;28;1446;-36
2022/01/05 00:56:18;;;;;;;;;;;;;;;17.60;61.28;100162.75;5037918;28;1623;-36
2022/01/05 00:58:50;;;;;;;;;;;;;;;17.56;61.08;100153.31;5049292;28;1519;-36
2022/01/05 01:01:18;;;;;;;;;;;;;;;17.60;60.91;100165.41;5051244;28;1910;-36
2022/01/05 01:03:47;;;;;;;;;;;;;;;17.60;61.04;100160.06;5036215;28;1498;-36
2022/01/05 01:06:15;;;;;;;;;;;;;;;17.56;61.28;100153.31;5036700;28;1890;-36
2022/01/05 01:08:44;;;;;;;;;;;;;;;17.55;61.30;100159.66;5041333;28;1541;-36
2022/01/05 01:11:12;;;;;;;;;;;;;;;17.54;61.19;100144.59;5053141;28;1488;-36
2022/01/05 01:13:39;;;;;;;;;;;;;;;17.58;61.37;100159.38;5045053;28;1759;-36
2022/01/05 01:16:20;;;;;;;;;;;;;;;17.54;61.14;100144.59;5050797;28;1588;-36
2022/01/05 01:18:51;;;;;;;;;;;;;;;17.52;61.06;100135.88;5053024;28;1548;-36
2022/01/05 01:21:21;;;;;;;;;;;;;;;17.51;61.34;100136.88;5051663;28;1976;-36
2022/01/05 01:23:55;;;;;;;;;;;;;;;17.50;61.40;100145.84;5050952;28;1463;-36
2022/01/05 01:26:23;;;;;;;;;;;;;;;17.49;61.45;100137.00;5052915;28;1672;-36
2022/01/05 01:28:51;;;;;;;;;;;;;;;17.47;61.51;100152.34;5048373;28;1617;-36
2022/01/05 01:31:22;;;;;;;;;;;;;;;17.44;61.30;100152.59;5050567;28;1605;-36
2022/01/05 01:33:49;;;;;;;;;;;;;;;17.43;61.34;100140.25;5053161;28;1379;-36
2022/01/05 01:36:16;;;;;;;;;;;;;;;17.44;61.11;100152.59;5044422;28;1573;-37
2022/01/05 01:38:43;;;;;;;;;;;;;;;17.46;61.24;100145.28;5050047;28;1452;-36
2022/01/05 01:41:10;;;;;;;;;;;;;;;17.42;61.06;100141.22;5049275;28;1969;-36
2022/01/05 01:43:41;;;;;;;;;;;;;;;17.42;61.48;100133.19;5052039;28;1650;-36
2022/01/05 01:46:12;;;;;;;;;;;;;;;17.39;61.47;100144.19;5050738;28;1637;-37
2022/01/05 01:48:42;;;;;;;;;;;;;;;17.44;61.42;100146.44;5053092;28;1385;-36
2022/01/05 01:51:09;;;;;;;;;;;;;;;17.39;61.09;100137.97;5050705;28;1594;-36
2022/01/05 01:53:36;;;;;;;;;;;;;;;17.39;61.25;100135.28;5052592;28;1706;-36
2022/01/05 01:56:06;;;;;;;;;;;;;;;17.37;61.44;100143.47;5048463;28;1657;-36
2022/01/05 01:58:34;;;;;;;;;;;;;;;17.39;61.69;100132.63;5050156;28;1610;-36
2022/01/05 02:01:00;;;;;;;;;;;;;;;17.37;61.69;100139.94;5051781;28;1975;-36
2022/01/05 02:03:28;;;;;;;;;;;;;;;17.71;61.18;100124.31;5054789;28;1599;-36
2022/01/05 02:06:04;;;;;;;;;;;;;;;18.31;59.92;100120.56;5055856;28;1619;-36
2022/01/05 02:08:44;;;;;;;;;;;;;;;18.85;59.00;100126.94;5050527;28;1678;-36
2022/01/05 02:11:11;;;;;;;;;;;;;;;19.35;57.78;100114.88;5051974;28;1582;-36
2022/01/05 02:13:38;;;;;;;;;;;;;;;19.49;58.61;100125.06;5050412;28;1422;-36
2022/01/05 02:16:07;;;;;;;;;;;;;;;19.61;58.12;100121.13;5054838;28;1677;-36
2022/01/05 02:24:03;;;;;;;;;;;;;;;18.88;60.07;100100.69;5051531;28;2539;-36
2022/01/05 02:26:31;;;;;;;;;;;;;;;18.86;59.84;100112.53;5056341;28;1469;-36
2022/01/05 02:28:58;;;;;;;;;;;;;;;18.98;59.28;100110.50;5049188;28;1613;-36
2022/01/05 02:31:25;;;;;;;;;;;;;;;19.10;58.71;100109.31;5055201;28;1608;-37
2022/01/05 02:33:52;;;;;;;;;;;;;;;18.89;59.83;100090.81;5053478;28;1429;-35
2022/01/05 02:36:24;;;;;;;;;;;;;;;18.86;60.20;100096.47;5043616;28;1491;-36
2022/01/05 02:38:53;;;;;;;;;;;;;;;18.98;59.72;100091.72;5051442;28;1718;-36
2022/01/05 02:41:20;;;;;;;;;;;;;;;18.97;59.79;100098.94;5055601;28;1981;-36
2022/01/05 02:43:47;;;;;;;;;;;;;;;19.04;59.29;100109.91;5052020;28;1392;-36
2022/01/05 02:46:14;;;;;;;;;;;;;;;19.00;59.58;100104.00;5047008;28;1488;-36
2022/01/05 02:48:41;;;;;;;;;;;;;;;18.99;59.29;100099.63;5037450;28;1712;-36
2022/01/05 02:51:17;;;;;;;;;;;;;;;19.15;59.08;100111.50;5053570;28;1638;-36
2022/01/05 02:53:49;;;;;;;;;;;;;;;19.18;59.48;100112.06;5054895;28;1731;-36
2022/01/05 02:56:18;;;;;;;;;;;;;;;19.03;59.39;100109.03;5056237;28;1577;-37
2022/01/05 02:58:46;;;;;;;;;;;;;;;19.24;58.73;100115.97;5046062;28;1489;-36
2022/01/05 03:01:19;;;;;;;;;;;;;;;19.25;59.13;100107.75;5151202;22;3647;-38
2022/01/05 03:03:45;;;;;;;;;;;;;;;19.08;59.19;100117.50;5052777;28;1582;-37
2022/01/05 03:06:12;;;;;;;;;;;;;;;19.22;59.05;100123.31;5055549;28;1777;-38
2022/01/05 03:08:38;;;;;;;;;;;;;;;19.31;57.98;100117.03;5055363;28;1079;-37
2022/01/05 03:11:06;;;;;;;;;;;;;;;19.16;59.14;100115.88;5055825;28;1947;-37
2022/01/05 03:13:32;;;;;;;;;;;;;;;18.91;59.86;100118.31;5053653;28;1566;-36
2022/01/05 03:15:59;;;;;;;;;;;;;;;18.69;60.79;100104.28;5054868;28;1809;-36
2022/01/05 03:18:25;;;;;;;;;;;;;;;18.65;61.01;100110.09;5054809;28;1617;-37
2022/01/05 03:20:58;;;;;;;;;;;;;;;18.68;61.29;100113.34;5055320;28;1946;-37
2022/01/05 03:23:24;;;;;;;;;;;;;;;18.61;61.74;100116.75;5055613;28;1913;-36
2022/01/05 03:25:51;;;;;;;;;;;;;;;18.61;61.12;100108.72;5054417;28;2056;-36
2022/01/05 03:28:19;;;;;;;;;;;;;;;18.57;62.17;100102.81;5053990;28;1637;-36
2022/01/05 03:30:45;;;;;;;;;;;;;;;18.62;62.20;100103.22;5055141;28;1837;-37
2022/01/05 03:33:12;;;;;;;;;;;;;;;18.56;62.18;100100.28;5054776;28;1584;-36
2022/01/05 03:35:43;;;;;;;;;;;;;;;18.61;61.79;100114.91;5055161;28;1928;-36
2022/01/05 03:38:10;;;;;;;;;;;;;;;18.60;62.32;100107.88;5054498;28;1662;-36
2022/01/05 03:40:37;;;;;;;;;;;;;;;18.55;62.12;100110.16;5054106;28;1443;-36
2022/01/05 03:43:04;;;;;;;;;;;;;;;18.56;62.05;100105.63;5053654;28;1942;-37
2022/01/05 03:45:32;;;;;;;;;;;;;;;18.59;62.59;100100.00;5054055;28;1162;-36
2022/01/05 03:47:59;;;;;;;;;;;;;;;18.56;62.66;100105.63;5054269;28;1630;-36
2022/01/05 03:50:25;;;;;;;;;;;;;;;18.61;62.42;100109.56;5054490;28;1785;-37
2022/01/05 03:52:52;;;;;;;;;;;;;;;18.59;62.45;100102.66;5053932;28;1469;-38
2022/01/05 03:55:18;;;;;;;;;;;;;;;18.29;63.20;100097.44;5055116;28;1777;-38
2022/01/05 03:57:44;;;;;;;;;;;;;;;18.05;64.15;100105.97;5052351;28;1471;-36
2022/01/05 04:00:11;;;;;;;;;;;;;;;17.93;64.43;100104.47;5054245;28;1885;-36
2022/01/05 04:02:39;;;;;;;;;;;;;;;17.82;64.66;100115.28;5052358;28;1901;-36
2022/01/05 04:05:06;;;;;;;;;;;;;;;17.73;64.90;100113.50;5054000;28;1333;-36
2022/01/05 04:07:32;;;;;;;;;;;;;;;17.64;64.92;100099.97;5054844;28;1006;-36
2022/01/05 04:09:59;;;;;;;;;;;;;;;17.64;64.89;100104.47;5053957;28;1809;-36
2022/01/05 04:12:25;;;;;;;;;;;;;;;17.55;64.74;100102.66;5054210;28;2016;-36
2022/01/05 04:14:52;;;;;;;;;;;;;;;17.50;64.88;100101.25;5054022;28;1628;-36
2022/01/05 04:17:18;;;;;;;;;;;;;;;17.49;64.84;100102.25;5054180;28;1701;-36
2022/01/05 04:19:46;;;;;;;;;;;;;;;17.44;65.40;100099.16;5054720;28;1097;-36
2022/01/05 04:22:19;;;;;;;;;;;;;;;17.39;64.78;100085.38;5053631;28;1906;-36
2022/01/05 04:24:46;;;;;;;;;;;;;;;17.36;65.27;100092.84;5052749;28;1607;-36
2022/01/05 04:27:12;;;;;;;;;;;;;;;17.33;65.55;100085.09;5052642;28;1616;-36
2022/01/05 04:29:39;;;;;;;;;;;;;;;17.33;64.87;100093.09;5052758;28;1617;-36
2022/01/05 04:32:05;;;;;;;;;;;;;;;17.30;65.27;100096.91;5053534;28;1580;-36
2022/01/05 04:34:32;;;;;;;;;;;;;;;17.28;65.79;100088.19;5054078;28;1123;-36
2022/01/05 04:37:00;;;;;;;;;;;;;;;17.23;65.41;100088.63;5053608;28;1969;-36
2022/01/05 04:39:26;;;;;;;;;;;;;;;17.22;65.74;100083.41;5053376;28;1841;-36
2022/01/05 04:41:53;;;;;;;;;;;;;;;17.22;65.74;100088.75;5052866;28;1909;-36
2022/01/05 04:44:19;;;;;;;;;;;;;;;17.18;66.01;100085.50;5053473;28;1791;-37
2022/01/05 04:46:45;;;;;;;;;;;;;;;17.19;66.21;100095.22;5053972;28;1847;-36
2022/01/05 04:49:12;;;;;;;;;;;;;;;17.18;66.23;100090.03;5053924;28;1078;-36
2022/01/05 04:51:38;;;;;;;;;;;;;;;17.14;65.55;100096.63;5053622;28;2682;-36
2022/01/05 04:54:06;;;;;;;;;;;;;;;17.14;66.25;100085.94;5053139;28;1507;-36
2022/01/05 04:56:33;;;;;;;;;;;;;;;17.13;66.44;100095.78;5051499;28;1529;-36
2022/01/05 04:58:59;;;;;;;;;;;;;;;17.07;66.50;100091.84;5053621;28;1107;-36
2022/01/05 05:01:25;;;;;;;;;;;;;;;17.09;66.15;100110.41;5051363;28;1984;-36
2022/01/05 05:03:52;;;;;;;;;;;;;;;17.06;66.14;100098.16;5053133;28;1779;-36
2022/01/05 05:06:18;;;;;;;;;;;;;;;17.05;66.92;100098.28;5052950;28;1741;-36
2022/01/05 05:08:45;;;;;;;;;;;;;;;17.04;66.97;100108.13;5052978;28;1627;-37
2022/01/05 05:11:13;;;;;;;;;;;;;;;16.97;66.35;100088.31;5050039;28;1460;-37
2022/01/05 05:13:39;;;;;;;;;;;;;;;17.01;66.60;100103.09;5053113;28;1744;-36
2022/01/05 05:16:05;;;;;;;;;;;;;;;16.97;67.06;100095.47;5052986;28;1822;-36
2022/01/05 05:18:32;;;;;;;;;;;;;;;16.97;66.93;100093.66;5053441;28;1196;-36
2022/01/05 05:20:59;;;;;;;;;;;;;;;16.97;67.05;100103.47;5053231;28;1977;-36
2022/01/05 05:23:25;;;;;;;;;;;;;;;16.96;67.38;100096.47;5043916;28;1906;-36
2022/01/05 05:25:52;;;;;;;;;;;;;;;16.93;66.99;100108.28;5047545;28;1958;-36
2022/01/05 05:28:20;;;;;;;;;;;;;;;16.93;66.40;100097.59;5052139;28;1400;-36
2022/01/05 05:30:47;;;;;;;;;;;;;;;16.95;66.08;100113.47;5052372;28;1898;-36
2022/01/05 05:33:14;;;;;;;;;;;;;;;16.93;66.63;100108.28;5052763;28;1135;-37
2022/01/05 05:35:41;;;;;;;;;;;;;;;16.88;66.54;100113.19;5051403;28;1807;-37
2022/01/05 05:38:08;;;;;;;;;;;;;;;16.89;66.37;100114.84;5052453;28;1720;-36
2022/01/05 05:40:35;;;;;;;;;;;;;;;16.86;67.33;100109.81;5046061;28;1323;-36
2022/01/05 05:43:01;;;;;;;;;;;;;;;16.86;66.24;100109.81;5049741;28;1902;-36
2022/01/05 05:45:29;;;;;;;;;;;;;;;16.84;66.94;100093.91;5050366;28;1115;-36
2022/01/05 05:47:56;;;;;;;;;;;;;;;16.84;66.87;100093.06;5049725;28;1888;-36
2022/01/05 05:50:22;;;;;;;;;;;;;;;16.85;66.60;100097.41;5041302;28;1442;-37
2022/01/05 05:52:49;;;;;;;;;;;;;;;16.84;66.85;100096.59;5048755;28;1937;-36
2022/01/05 05:55:15;;;;;;;;;;;;;;;16.86;66.51;100104.47;5049157;28;1302;-36
2022/01/05 05:57:42;;;;;;;;;;;;;;;16.85;67.20;100092.06;5052561;28;1111;-36
2022/01/05 06:00:09;;;;;;;;;;;;;;;16.81;67.25;100095.97;5052572;28;2038;-37
2022/01/05 06:02:37;;;;;;;;;;;;;;;16.76;66.47;100099.06;5050599;28;1944;-36
2022/01/05 06:05:04;;;;;;;;;;;;;;;16.82;66.77;100111.91;5052382;28;1425;-36
2022/01/05 06:07:30;;;;;;;;;;;;;;;16.80;67.44;100113.84;5052858;28;1002;-37
2022/01/05 06:09:58;;;;;;;;;;;;;;;16.86;67.35;100124.00;5044675;28;1562;-36
2022/01/05 06:12:25;;;;;;;;;;;;;;;16.92;67.18;100109.25;5052623;28;1946;-36
2022/01/05 06:14:51;;;;;;;;;;;;;;;16.92;67.03;100108.41;5051381;28;1726;-36
2022/01/05 06:17:18;;;;;;;;;;;;;;;16.88;66.53;100108.69;5048418;28;1594;-36
2022/01/05 06:19:46;;;;;;;;;;;;;;;16.89;66.07;100117.53;5052454;28;1693;-36
2022/01/05 06:22:13;;;;;;;;;;;;;;;16.99;67.10;100123.75;5051892;28;1980;-35
2022/01/05 06:24:40;;;;;;;;;;;;;;;17.39;66.04;100125.47;5043627;28;1883;-36
2022/01/05 06:27:08;;;;;;;;;;;;;;;17.93;64.56;100119.69;5046616;28;1464;-36
2022/01/05 06:29:36;;;;;;;;;;;;;;;18.33;63.70;100106.03;5044039;28;1644;-37
2022/01/05 06:32:03;;;;;;;;;;;;;;;18.84;62.59;100115.38;5048406;28;1626;-37
2022/01/05 06:34:29;;;;;;;;;;;;;;;19.09;63.05;100129.03;5051806;28;1067;-36
2022/01/05 06:36:57;;;;;;;;;;;;;;;19.23;61.54;100127.69;5048153;28;1535;-36
2022/01/05 06:39:23;;;;;;;;;;;;;;;19.12;62.62;100112.66;5051548;28;1870;-36
2022/01/05 06:41:50;;;;;;;;;;;;;;;19.12;61.59;100114.50;5051893;28;1971;-36
2022/01/05 06:44:16;;;;;;;;;;;;;;;18.73;63.55;100117.41;5048913;28;1829;-36
2022/01/05 06:46:43;;;;;;;;;;;;;;;18.36;64.70;100120.94;5046069;28;1684;-36
2022/01/05 06:49:09;;;;;;;;;;;;;;;18.10;65.21;100121.59;5055534;28;1314;-37
2022/01/05 06:51:36;;;;;;;;;;;;;;;17.86;65.79;100120.22;5055144;28;1991;-36
2022/01/05 06:54:03;;;;;;;;;;;;;;;17.89;65.41;100130.66;5054303;28;1805;-36
2022/01/05 06:56:30;;;;;;;;;;;;;;;18.06;65.13;100129.09;5053692;28;1692;-36
2022/01/05 06:58:57;;;;;;;;;;;;;;;18.04;65.27;100130.19;5050731;28;1604;-36
2022/01/05 07:01:23;;;;;;;;;;;;;;;17.96;65.48;100130.09;5045720;28;1565;-37
2022/01/05 07:03:49;;;;;;;;;;;;;;;17.92;65.23;100145.56;5054277;28;1977;-36
2022/01/05 07:06:16;;;;;;;;;;;;;;;17.91;65.04;100125.16;5055202;28;1863;-36
2022/01/05 07:08:42;;;;;;;;;;;;;;;17.93;65.32;100152.63;5055191;28;1648;-37
2022/01/05 07:11:10;;;;;;;;;;;;;;;17.95;64.88;100128.41;5055433;28;1799;-36
2022/01/05 07:13:37;;;;;;;;;;;;;;;17.95;65.18;100131.91;5055195;28;1791;-36
2022/01/05 07:16:03;;;;;;;;;;;;;;;17.96;64.76;100135.44;5054620;28;1627;-36
2022/01/05 07:18:30;;;;;;;;;;;;;;;17.99;64.99;100140.50;5056195;28;1058;-36
2022/01/05 07:20:56;;;;;;;;;;;;;;;18.03;64.78;100141.91;5054896;28;1667;-36
2022/01/05 07:23:23;;;;;;;;;;;;;;;18.03;64.61;100148.09;5046081;28;1977;-36
2022/01/05 07:25:49;;;;;;;;;;;;;;;18.04;64.43;100133.72;5054756;28;1455;-37
2022/01/05 07:28:17;;;;;;;;;;;;;;;18.08;64.76;100144.97;5054865;28;1601;-36
2022/01/05 07:30:43;;;;;;;;;;;;;;;18.07;64.62;100146.81;5054781;28;1667;-37
2022/01/05 07:33:10;;;;;;;;;;;;;;;18.14;64.46;100144.38;5055350;28;1088;-36
2022/01/05 07:35:36;;;;;;;;;;;;;;;18.19;64.98;100146.66;5054799;28;1695;-36
2022/01/05 07:38:03;;;;;;;;;;;;;;;18.19;64.51;100142.13;5054579;28;1608;-36
2022/01/05 07:40:30;;;;;;;;;;;;;;;18.24;64.12;100134.53;5055574;28;1814;-36
2022/01/05 07:42:56;;;;;;;;;;;;;;;18.26;64.48;100145.94;5052754;28;1902;-37
2022/01/05 07:45:24;;;;;;;;;;;;;;;18.32;64.29;100130.25;5053890;28;1568;-37
2022/01/05 07:47:50;;;;;;;;;;;;;;;18.38;64.27;100145.72;5052156;28;1539;-36
2022/01/05 07:50:17;;;;;;;;;;;;;;;18.46;63.92;100137.81;5046430;28;1755;-36
2022/01/05 07:52:44;;;;;;;;;;;;;;;18.49;64.05;100153.59;5053780;28;1376;-36
2022/01/05 07:55:11;;;;;;;;;;;;;;;18.54;64.01;100137.91;5050564;28;1338;-36
2022/01/05 07:57:38;;;;;;;;;;;;;;;18.57;63.84;100136.78;5047723;28;1816;-36
2022/01/05 08:00:05;;;;;;;;;;;;;;;18.60;63.96;100148.06;5045659;28;1476;-38
2022/01/05 08:02:33;;;;;;;;;;;;;;;18.61;64.01;100138.19;5051518;28;1913;-36
2022/01/05 08:04:59;;;;;;;;;;;;;;;18.60;64.02;100134.66;5047597;28;1457;-36
2022/01/05 08:07:26;;;;;;;;;;;;;;;18.67;63.51;100141.09;5052307;28;1264;-36
2022/01/05 08:09:52;;;;;;;;;;;;;;;18.73;63.38;100141.50;5050052;28;1952;-36
2022/01/05 08:12:18;;;;;;;;;;;;;;;18.72;63.61;100138.00;5049972;28;1677;-36
2022/01/05 08:14:45;;;;;;;;;;;;;;;18.73;63.88;100136.97;5048439;28;1697;-36
2022/01/05 08:17:11;;;;;;;;;;;;;;;18.75;63.45;100128.81;5044049;28;1626;-36
2022/01/05 08:19:39;;;;;;;;;;;;;;;18.84;63.89;100135.97;5042152;28;1472;-36
2022/01/05 08:22:06;;;;;;;;;;;;;;;18.94;63.41;100141.25;5046894;28;2011;-36
2022/01/05 08:24:32;;;;;;;;;;;;;;;18.95;63.71;100137.59;5044922;28;1969;-36
2022/01/05 08:26:59;;;;;;;;;;;;;;;18.98;63.13;100132.78;5052090;28;1539;-36
2022/01/05 08:29:25;;;;;;;;;;;;;;;19.04;63.43;100132.19;5051036;28;1531;-36
2022/01/05 08:31:52;;;;;;;;;;;;;;;19.04;63.17;100118.78;5046074;28;1617;-36
2022/01/05 08:34:18;;;;;;;;;;;;;;;19.05;63.67;100123.13;5042632;28;1571;-38
2022/01/05 08:36:46;;;;;;;;;;;;;;;19.02;62.79;100133.31;5050249;28;1663;-35
2022/01/05 08:39:12;;;;;;;;;;;;;;;19.00;63.18;100127.25;5047234;28;1928;-36
2022/01/05 08:41:39;;;;;;;;;;;;;;;19.00;62.84;100125.44;5049831;28;1767;-36
2022/01/05 08:44:05;;;;;;;;;;;;;;;18.99;63.55;100113.03;5053181;28;1967;-36
2022/01/05 08:46:32;;;;;;;;;;;;;;;18.98;63.21;100127.44;5044911;28;1586;-36
2022/01/05 08:48:58;;;;;;;;;;;;;;;18.95;63.25;100114.31;5050373;28;1373;-36
2022/01/05 08:51:25;;;;;;;;;;;;;;;18.91;64.06;100114.78;5053248;28;1588;-36
2022/01/05 08:53:52;;;;;;;;;;;;;;;18.94;64.03;100119.81;5050749;28;1544;-36
2022/01/05 08:56:23;;;;;;;;;;;;;;;18.86;63.20;100123.25;5051322;28;1586;-37
2022/01/05 08:58:50;;;;;;;;;;;;;;;18.81;64.26;100118.34;5047087;28;2042;-36
2022/01/05 09:01:16;;;;;;;;;;;;;;;18.86;64.30;100116.09;5044159;28;1636;-36
2022/01/05 09:03:43;;;;;;;;;;;;;;;18.84;63.63;100115.38;5050048;28;2078;-36
2022/01/05 09:06:23;;;;;;;;;;;;;;;18.83;64.17;100112.84;5043506;28;1401;-36
2022/01/05 09:08:50;;;;;;;;;;;;;;;18.86;64.35;100101.81;5049090;28;1497;-36
2022/01/05 09:11:17;;;;;;;;;;;;;;;18.94;64.16;100112.66;5050807;28;1644;-36
2022/01/05 09:13:44;;;;;;;;;;;;;;;18.97;64.10;100101.63;5050132;28;1643;-36
2022/01/05 09:16:10;;;;;;;;;;;;;;;19.00;63.16;100098.66;5052753;28;1606;-37
2022/01/05 09:18:37;;;;;;;;;;;;;;;18.93;63.53;100102.09;5053401;28;1920;-36
2022/01/05 09:21:03;;;;;;;;;;;;;;;18.99;63.24;100091.59;5041910;28;1505;-36
2022/01/05 09:23:30;;;;;;;;;;;;;;;18.98;63.12;100091.72;5050215;28;1906;-36
2022/01/05 09:25:56;;;;;;;;;;;;;;;18.98;63.98;100086.38;5051714;28;1508;-36
2022/01/05 09:28:24;;;;;;;;;;;;;;;19.01;64.24;100083.41;5046487;28;1553;-36
2022/01/05 09:30:50;;;;;;;;;;;;;;;18.97;64.39;100072.16;5047994;28;1607;-38
2022/01/05 09:33:17;;;;;;;;;;;;;;;18.95;63.56;100094.72;5041596;28;1578;-36
2022/01/05 09:35:46;;;;;;;;;;;;;;;18.93;63.44;100086.84;5048226;28;1586;-36
2022/01/05 09:38:33;;;;;;;;;;;;;;;18.92;64.38;100085.16;5050566;28;1573;-36
2022/01/05 09:43:51;;;;;;;;;;;;;;;18.93;64.37;100092.19;5047385;28;1973;-36
2022/01/05 09:46:25;;;;;;;;;;;;;;;18.96;64.23;100083.00;5050059;28;1380;-36
2022/01/05 09:49:01;;;;;;;;;;;;;;;18.99;63.77;100094.28;5038877;28;1511;-36
2022/01/05 09:51:31;;;;;;;;;;;;;;;18.98;64.06;100081.88;5044684;28;1584;-36
2022/01/05 09:54:01;;;;;;;;;;;;;;;18.93;64.71;100076.13;5050022;28;1555;-37
2022/01/05 09:56:28;;;;;;;;;;;;;;;18.96;64.04;100069.59;5040791;28;1357;-36
2022/01/05 09:59:00;;;;;;;;;;;;;;;18.93;64.17;100064.56;5049162;28;1722;-36
2022/01/05 10:01:27;;;;;;;;;;;;;;;18.93;64.87;100065.41;5046344;28;1596;-36
2022/01/05 10:04:00;;;;;;;;;;;;;;;18.94;63.84;100066.25;5044080;28;1985;-36
2022/01/05 10:06:26;;;;;;;;;;;;;;;18.90;63.99;100079.13;5049320;28;1495;-36
2022/01/05 10:08:53;;;;;;;;;;;;;;;18.92;63.94;100055.69;5043672;28;1458;-37
2022/01/05 10:11:20;;;;;;;;;;;;;;;18.96;64.27;100065.13;5044120;28;1572;-36
2022/01/05 10:13:47;;;;;;;;;;;;;;;18.91;63.96;100056.69;5049947;28;1633;-36
2022/01/05 10:16:15;;;;;;;;;;;;;;;18.94;64.12;100058.19;5047209;28;1446;-36
2022/01/05 10:18:42;;;;;;;;;;;;;;;18.94;64.82;100067.09;5040252;28;1479;-36
2022/01/05 10:21:09;;;;;;;;;;;;;;;18.95;64.26;100060.75;5044120;28;1657;-36
2022/01/05 10:23:36;;;;;;;;;;;;;;;19.00;63.77;100060.28;5049009;28;1906;-36
2022/01/05 10:26:23;;;;;;;;;;;;;;;18.98;63.77;100044.38;5051662;28;1469;-36
2022/01/05 10:28:57;;;;;;;;;;;;;;;18.98;63.96;100047.06;5048888;28;1471;-36
2022/01/05 10:31:26;;;;;;;;;;;;;;;19.01;64.69;100049.41;5054798;28;1478;-36
2022/01/05 10:33:54;;;;;;;;;;;;;;;18.99;63.94;100042.53;5046687;28;1479;-36
2022/01/05 10:36:20;;;;;;;;;;;;;;;18.99;63.87;100031.81;5052274;28;1689;-36
2022/01/05 10:38:57;;;;;;;;;;;;;;;18.97;64.20;100034.63;5045198;28;1585;-36
2022/01/05 10:41:26;;;;;;;;;;;;;;;19.02;64.35;100024.31;5052239;28;1746;-36
2022/01/05 10:44:09;;;;;;;;;;;;;;;19.00;64.51;100022.75;5054991;28;1901;-36
2022/01/05 10:46:37;;;;;;;;;;;;;;;19.01;63.94;100027.97;5053147;28;1572;-36
2022/01/05 10:49:04;;;;;;;;;;;;;;;18.94;63.87;100034.97;5048295;28;1055;-36
2022/01/05 10:51:30;;;;;;;;;;;;;;;18.97;63.99;100018.56;5055899;28;1761;-36
2022/01/05 10:54:09;;;;;;;;;;;;;;;18.88;64.30;100012.28;5055093;28;1667;-36
2022/01/05 10:56:36;;;;;;;;;;;;;;;18.91;64.82;100021.84;5050173;28;1586;-36
2022/01/05 10:59:03;;;;;;;;;;;;;;;18.85;64.69;100017.09;5042907;28;1637;-36
2022/01/05 11:01:30;;;;;;;;;;;;;;;18.90;64.32;100009.47;5051986;28;1501;-36
2022/01/05 11:03:58;;;;;;;;;;;;;;;18.90;64.27;100009.47;5053882;28;1905;-36
2022/01/05 11:06:24;;;;;;;;;;;;;;;18.98;64.16;100022.06;5050539;28;1651;-36
2022/01/05 11:08:53;;;;;;;;;;;;;;;19.00;64.29;100022.75;5052061;28;1544;-36
2022/01/05 11:11:29;;;;;;;;;;;;;;;19.04;64.28;100013.44;5054944;28;1829;-37
2022/01/05 11:13:56;;;;;;;;;;;;;;;18.95;64.53;100001.78;5045491;28;1477;-36
2022/01/05 11:16:25;;;;;;;;;;;;;;;18.99;64.47;99994.28;5052230;28;1498;-36
2022/01/05 11:18:58;;;;;;;;;;;;;;;18.92;63.97;99987.84;5054928;28;1233;-36
2022/01/05 11:21:26;;;;;;;;;;;;;;;18.94;64.07;99997.44;5052670;28;1813;-36
2022/01/05 11:23:53;;;;;;;;;;;;;;;18.91;64.08;99987.03;5050650;28;1906;-36
2022/01/05 11:26:19;;;;;;;;;;;;;;;18.89;64.83;99983.66;5044149;28;1597;-36
2022/01/05 11:28:46;;;;;;;;;;;;;;;18.90;64.76;99989.84;5047484;28;1641;-37
2022/01/05 11:31:12;;;;;;;;;;;;;;;18.89;65.06;99989.00;5054580;28;1490;-36
2022/01/05 11:33:39;;;;;;;;;;;;;;;18.87;64.73;99985.66;5039938;28;1617;-36
2022/01/05 11:36:07;;;;;;;;;;;;;;;18.85;64.89;99983.13;5044490;28;1555;-36
2022/01/05 11:38:35;;;;;;;;;;;;;;;18.85;64.64;99976.94;5052325;28;1574;-36
2022/01/05 11:41:01;;;;;;;;;;;;;;;18.87;64.93;99964.22;5049165;28;1589;-35
2022/01/05 11:43:31;;;;;;;;;;;;;;;18.88;64.51;99965.91;5047074;28;1975;-36
2022/01/05 11:45:58;;;;;;;;;;;;;;;18.93;65.01;99957.41;5052525;28;1735;-36
2022/01/05 11:48:26;;;;;;;;;;;;;;;18.93;64.97;99963.59;5043025;28;1357;-36
2022/01/05 11:50:55;;;;;;;;;;;;;;;18.94;65.13;99964.44;5051009;28;1964;-36
2022/01/05 11:53:40;;;;;;;;;;;;;;;18.98;63.95;99965.81;5053693;28;1631;-36
2022/01/05 11:56:10;;;;;;;;;;;;;;;19.00;64.51;99963.81;5040218;28;1683;-36
2022/01/05 11:58:37;;;;;;;;;;;;;;;19.00;65.03;99958.44;5048146;28;1380;-36
2022/01/05 12:01:23;;;;;;;;;;;;;;;19.04;63.86;99954.50;5052576;28;1633;-36
2022/01/05 12:04:09;;;;;;;;;;;;;;;19.00;64.20;99937.03;5036326;28;1997;-36
2022/01/05 12:07:00;;;;;;;;;;;;;;;18.97;64.50;99932.81;5047763;28;1688;-36
2022/01/05 12:09:30;;;;;;;;;;;;;;;18.92;64.82;99943.19;5052664;28;1842;-36
2022/01/05 12:11:56;;;;;;;;;;;;;;;18.93;65.12;99935.97;5053941;28;1659;-36
2022/01/05 12:14:41;;;;;;;;;;;;;;;18.88;64.65;99931.09;5050679;28;1639;-36
2022/01/05 12:17:11;;;;;;;;;;;;;;;18.91;65.26;99927.25;5050668;28;1722;-36
2022/01/05 12:19:59;;;;;;;;;;;;;;;18.87;65.10;99921.34;5037625;28;1392;-36
2022/01/05 12:22:27;;;;;;;;;;;;;;;18.90;64.25;99915.69;5055774;28;1783;-36
2022/01/05 12:25:09;;;;;;;;;;;;;;;18.94;64.41;99921.56;5046478;28;2261;-36
2022/01/05 12:27:37;;;;;;;;;;;;;;;18.95;64.93;99883.91;5053649;28;1746;-36
2022/01/05 12:30:25;;;;;;;;;;;;;;;19.03;64.95;99904.56;5052944;28;1934;-37
2022/01/05 12:33:02;;;;;;;;;;;;;;;19.04;64.20;99874.09;5052660;28;2008;-36
2022/01/05 12:35:29;;;;;;;;;;;;;;;19.06;64.70;99888.19;5045666;28;1643;-36
2022/01/05 12:37:56;;;;;;;;;;;;;;;19.07;64.24;99874.59;5045241;28;1513;-36
2022/01/05 12:40:33;;;;;;;;;;;;;;;19.07;64.73;99885.31;5045883;28;1527;-37
2022/01/05 12:43:18;;;;;;;;;;;;;;;19.03;64.53;99888.50;5049026;28;1513;-36
2022/01/05 12:45:48;;;;;;;;;;;;;;;19.03;64.91;99881.28;5039877;28;1953;-36
2022/01/05 12:48:29;;;;;;;;;;;;;;;19.00;64.98;99873.56;5048137;28;1556;-36
2022/01/05 12:51:17;;;;;;;;;;;;;;;18.98;64.62;99869.34;5045652;28;2120;-36
2022/01/05 12:53:50;;;;;;;;;;;;;;;19.01;64.88;99875.25;5042758;28;2453;-36
2022/01/05 12:56:19;;;;;;;;;;;;;;;19.00;64.99;99878.94;5046282;28;1639;-36
2022/01/05 12:58:47;;;;;;;;;;;;;;;19.02;64.49;99876.06;5050352;28;1495;-36
2022/01/05 13:01:13;;;;;;;;;;;;;;;19.03;64.96;99862.53;5041021;28;1613;-36
2022/01/05 13:03:40;;;;;;;;;;;;;;;19.04;64.90;99866.06;5043995;28;1435;-36